sensor_id;sensor_type;location;lat;lon;timestamp;temperature;humidity
7248;DHT22;3665;51.034;13.642;2024-03-23T00:57:18;8.20;99.90
7248;DHT22;3665;51.034;13.642;2024-03-23T01:02:04;8.00;99.90
7248;DHT22;3665;51.034;13.642;2024-03-23T01:06:56;8.20;99.90
7248;DHT22;3665;51.034;13.642;2024-03-23T01:11:41;8.20;1.00
7248;DHT22;3665;51.034;13.642;2024-03-23T01:16:33;8.20;1.00
7248;DHT22;3665;51.034;13.642;2024-03-23T01:21:18;8.10;1.00
7248;DHT22;3665;51.034;13.642;2024-03-23T01:26:02;7.90;99.90
7248;DHT22;3665;51.034;13.642;2024-03-23T01:30:48;7.60;1.00
7248;DHT22;3665;51.034;13.642;2024-03-23T01:35:38;7.40;1.00
7248;DHT22;3665;51.034;13.642;2024-03-23T01:40:22;7.30;99.90
7248;DHT22;3665;51.034;13.642;2024-03-23T01:45:19;7.50;99.90
7248;DHT22;3665;51.034;13.642;2024-03-23T01:50:08;7.60;99.90
7248;DHT22;3665;51.034;13.642;2024-03-23T01:54:53;7.60;99.90
7248;DHT22;3665;51.034;13.642;2024-03-23T01:59:36;7.50;99.90
7248;DHT22;3665;51.034;13.642;2024-03-23T02:04:31;7.60;99.90
7248;DHT22;3665;51.034;13.642;2024-03-23T02:09:19;7.60;99.90
7248;DHT22;3665;51.034;13.642;2024-03-23T02:14:05;7.60;99.90
7248;DHT22;3665;51.034;13.642;2024-03-23T02:18:49;7.70;99.90
7248;DHT22;3665;51.034;13.642;2024-03-23T02:23:43;7.80;99.90
7248;DHT22;3665;51.034;13.642;2024-03-23T02:28:29;7.90;99.90
7248;DHT22;3665;51.034;13.642;2024-03-23T02:33:17;8.00;99.90
7248;DHT22;3665;51.034;13.642;2024-03-23T02:38:02;8.00;99.90
7248;DHT22;3665;51.034;13.642;2024-03-23T02:42:49;8.10;99.90
7248;DHT22;3665;51.034;13.642;2024-03-23T02:47:35;8.20;99.90
7248;DHT22;3665;51.034;13.642;2024-03-23T02:52:35;8.20;99.90
7248;DHT22;3665;51.034;13.642;2024-03-23T02:57:18;8.20;99.90
7248;DHT22;3665;51.034;13.642;2024-03-23T03:02:09;8.30;99.90
7248;DHT22;3665;51.034;13.642;2024-03-23T03:06:52;8.20;99.90
7248;DHT22;3665;51.034;13.642;2024-03-23T03:11:34;8.20;99.90
7248;DHT22;3665;51.034;13.642;2024-03-23T03:16:22;8.10;99.90
7248;DHT22;3665;51.034;13.642;2024-03-23T03:21:08;8.10;99.90
7248;DHT22;3665;51.034;13.642;2024-03-23T03:25:59;8.20;99.90
7248;DHT22;3665;51.034;13.642;2024-03-23T03:30:53;8.20;99.90
7248;DHT22;3665;51.034;13.642;2024-03-23T03:35:36;8.20;99.90
7248;DHT22;3665;51.034;13.642;2024-03-23T03:40:23;8.20;99.90
7248;DHT22;3665;51.034;13.642;2024-03-23T03:45:09;8.20;99.90
7248;DHT22;3665;51.034;13.642;2024-03-23T03:49:57;8.20;99.90
7248;DHT22;3665;51.034;13.642;2024-03-23T03:54:44;8.10;99.90
7248;DHT22;3665;51.034;13.642;2024-03-23T03:59:29;8.20;99.90
7248;DHT22;3665;51.034;13.642;2024-03-23T04:04:11;8.10;99.90
7248;DHT22;3665;51.034;13.642;2024-03-23T04:08:55;8.10;99.90
7248;DHT22;3665;51.034;13.642;2024-03-23T04:13:42;8.00;99.90
7248;DHT22;3665;51.034;13.642;2024-03-23T04:18:41;7.80;99.90
7248;DHT22;3665;51.034;13.642;2024-03-23T04:23:25;7.50;99.90
7248;DHT22;3665;51.034;13.642;2024-03-23T04:28:08;7.30;99.90
7248;DHT22;3665;51.034;13.642;2024-03-23T04:33:02;7.10;99.90
7248;DHT22;3665;51.034;13.642;2024-03-23T04:37:49;6.80;99.90
7248;DHT22;3665;51.034;13.642;2024-03-23T04:42:39;6.70;99.90
7248;DHT22;3665;51.034;13.642;2024-03-23T04:47:24;6.70;99.90
7248;DHT22;3665;51.034;13.642;2024-03-23T04:52:07;6.60;99.90
7248;DHT22;3665;51.034;13.642;2024-03-23T04:57:01;6.50;99.90
7248;DHT22;3665;51.034;13.642;2024-03-23T05:01:50;6.60;99.90
7248;DHT22;3665;51.034;13.642;2024-03-23T05:06:36;6.80;99.90
7248;DHT22;3665;51.034;13.642;2024-03-23T05:11:19;7.00;99.90
7248;DHT22;3665;51.034;13.642;2024-03-23T05:16:15;7.10;99.90
7248;DHT22;3665;51.034;13.642;2024-03-23T05:21:03;7.20;99.90
7248;DHT22;3665;51.034;13.642;2024-03-23T05:25:52;7.30;99.90
7248;DHT22;3665;51.034;13.642;2024-03-23T05:30:41;7.40;99.90
7248;DHT22;3665;51.034;13.642;2024-03-23T05:35:42;7.60;99.90
7248;DHT22;3665;51.034;13.642;2024-03-23T05:40:26;7.80;99.90
7248;DHT22;3665;51.034;13.642;2024-03-23T05:45:18;7.80;99.90
7248;DHT22;3665;51.034;13.642;2024-03-23T05:50:05;7.80;99.90
7248;DHT22;3665;51.034;13.642;2024-03-23T05:54:55;8.00;99.90
7248;DHT22;3665;51.034;13.642;2024-03-23T05:59:44;8.00;99.90
7248;DHT22;3665;51.034;13.642;2024-03-23T06:04:30;8.00;99.90
7248;DHT22;3665;51.034;13.642;2024-03-23T06:09:15;7.90;99.90
7248;DHT22;3665;51.034;13.642;2024-03-23T06:14:09;7.90;99.90
7248;DHT22;3665;51.034;13.642;2024-03-23T06:18:54;7.90;99.90
7248;DHT22;3665;51.034;13.642;2024-03-23T06:23:44;7.90;99.90
7248;DHT22;3665;51.034;13.642;2024-03-23T06:28:32;7.90;99.90
7248;DHT22;3665;51.034;13.642;2024-03-23T06:33:18;7.90;99.90
7248;DHT22;3665;51.034;13.642;2024-03-23T06:38:01;7.90;99.90
7248;DHT22;3665;51.034;13.642;2024-03-23T06:42:44;7.90;99.90
7248;DHT22;3665;51.034;13.642;2024-03-23T06:47:30;7.90;99.90
7248;DHT22;3665;51.034;13.642;2024-03-23T06:52:21;7.90;99.90
7248;DHT22;3665;51.034;13.642;2024-03-23T06:57:04;7.90;99.90
7248;DHT22;3665;51.034;13.642;2024-03-23T07:01:54;8.00;99.90
7248;DHT22;3665;51.034;13.642;2024-03-23T07:06:42;8.00;99.90
7248;DHT22;3665;51.034;13.642;2024-03-23T07:11:43;8.00;99.90
7248;DHT22;3665;51.034;13.642;2024-03-23T07:16:27;8.00;99.90
7248;DHT22;3665;51.034;13.642;2024-03-23T07:21:25;7.90;99.90
7248;DHT22;3665;51.034;13.642;2024-03-23T07:26:09;7.90;99.90
7248;DHT22;3665;51.034;13.642;2024-03-23T07:31:07;8.20;99.90
7248;DHT22;3665;51.034;13.642;2024-03-23T07:35:55;8.40;99.90
7248;DHT22;3665;51.034;13.642;2024-03-23T07:40:51;8.80;99.90
7248;DHT22;3665;51.034;13.642;2024-03-23T07:45:40;8.90;99.90
7248;DHT22;3665;51.034;13.642;2024-03-23T07:50:27;9.10;99.90
7248;DHT22;3665;51.034;13.642;2024-03-23T07:55:15;9.20;99.90
7248;DHT22;3665;51.034;13.642;2024-03-23T08:00:04;9.20;99.90
7248;DHT22;3665;51.034;13.642;2024-03-23T08:04:49;9.40;99.90
7248;DHT22;3665;51.034;13.642;2024-03-23T08:09:39;9.70;99.90
7248;DHT22;3665;51.034;13.642;2024-03-23T08:14:27;9.80;99.90
7248;DHT22;3665;51.034;13.642;2024-03-23T08:19:14;9.80;99.90
7248;DHT22;3665;51.034;13.642;2024-03-23T08:24:07;9.80;99.90
7248;DHT22;3665;51.034;13.642;2024-03-23T08:29:08;10.20;99.90
7248;DHT22;3665;51.034;13.642;2024-03-23T08:33:59;10.70;91.80
7248;DHT22;3665;51.034;13.642;2024-03-23T08:38:43;11.00;1.00
7248;DHT22;3665;51.034;13.642;2024-03-23T08:43:36;11.10;99.90
7248;DHT22;3665;51.034;13.642;2024-03-23T08:48:37;10.80;99.90
7248;DHT22;3665;51.034;13.642;2024-03-23T08:53:21;10.70;91.60
7248;DHT22;3665;51.034;13.642;2024-03-23T08:58:10;11.00;1.00
7248;DHT22;3665;51.034;13.642;2024-03-23T09:02:57;11.40;1.00
7248;DHT22;3665;51.034;13.642;2024-03-23T09:07:49;11.80;99.90
7248;DHT22;3665;51.034;13.642;2024-03-23T09:12:34;12.20;99.90
7248;DHT22;3665;51.034;13.642;2024-03-23T09:17:23;12.60;63.90
7248;DHT22;3665;51.034;13.642;2024-03-23T09:22:09;12.50;22.30
7248;DHT22;3665;51.034;13.642;2024-03-23T09:27:01;12.40;10.50
7248;DHT22;3665;51.034;13.642;2024-03-23T09:31:47;12.40;20.30
7248;DHT22;3665;51.034;13.642;2024-03-23T09:36:33;12.00;14.00
7248;DHT22;3665;51.034;13.642;2024-03-23T09:41:16;11.70;99.90
7248;DHT22;3665;51.034;13.642;2024-03-23T09:46:04;10.70;99.90
7248;DHT22;3665;51.034;13.642;2024-03-23T09:50:52;10.00;99.90
7248;DHT22;3665;51.034;13.642;2024-03-23T09:55:40;9.60;1.00
7248;DHT22;3665;51.034;13.642;2024-03-23T10:00:23;8.50;1.00
7248;DHT22;3665;51.034;13.642;2024-03-23T10:05:21;7.50;1.00
7248;DHT22;3665;51.034;13.642;2024-03-23T10:10:11;7.20;1.00
7248;DHT22;3665;51.034;13.642;2024-03-23T10:15:00;6.60;1.00
7248;DHT22;3665;51.034;13.642;2024-03-23T10:19:47;6.10;99.90
7248;DHT22;3665;51.034;13.642;2024-03-23T10:24:52;5.80;99.90
7248;DHT22;3665;51.034;13.642;2024-03-23T10:29:44;5.60;99.90
7248;DHT22;3665;51.034;13.642;2024-03-23T10:34:47;5.50;99.90
7248;DHT22;3665;51.034;13.642;2024-03-23T10:39:34;5.30;99.90
7248;DHT22;3665;51.034;13.642;2024-03-23T10:44:19;5.30;1.00
7248;DHT22;3665;51.034;13.642;2024-03-23T10:49:06;4.90;1.00
7248;DHT22;3665;51.034;13.642;2024-03-23T10:54:10;4.80;1.00
7248;DHT22;3665;51.034;13.642;2024-03-23T10:58:57;5.00;36.90
7248;DHT22;3665;51.034;13.642;2024-03-23T11:03:47;4.90;1.00
7248;DHT22;3665;51.034;13.642;2024-03-23T11:08:40;4.90;1.00
7248;DHT22;3665;51.034;13.642;2024-03-23T11:13:24;4.70;1.00
7248;DHT22;3665;51.034;13.642;2024-03-23T11:18:10;4.60;1.00
7248;DHT22;3665;51.034;13.642;2024-03-23T11:22:57;5.20;99.90
7248;DHT22;3665;51.034;13.642;2024-03-23T11:27:39;5.30;1.00
7248;DHT22;3665;51.034;13.642;2024-03-23T11:32:27;5.50;99.90
7248;DHT22;3665;51.034;13.642;2024-03-23T11:37:26;5.50;99.90
7248;DHT22;3665;51.034;13.642;2024-03-23T11:42:15;5.10;99.90
7248;DHT22;3665;51.034;13.642;2024-03-23T11:47:07;5.20;1.00
7248;DHT22;3665;51.034;13.642;2024-03-23T11:52:03;5.20;1.00
7248;DHT22;3665;51.034;13.642;2024-03-23T11:56:57;5.50;1.00
7248;DHT22;3665;51.034;13.642;2024-03-23T12:01:41;5.60;99.90
7248;DHT22;3665;51.034;13.642;2024-03-23T12:06:26;5.60;99.90
7248;DHT22;3665;51.034;13.642;2024-03-23T12:11:16;5.90;99.90
7248;DHT22;3665;51.034;13.642;2024-03-23T12:16:15;6.10;91.00
7248;DHT22;3665;51.034;13.642;2024-03-23T12:21:09;6.00;60.10
7248;DHT22;3665;51.034;13.642;2024-03-23T12:25:54;5.70;53.50
7248;DHT22;3665;51.034;13.642;2024-03-23T12:30:43;5.80;99.90
7248;DHT22;3665;51.034;13.642;2024-03-23T12:35:26;6.20;61.20
7248;DHT22;3665;51.034;13.642;2024-03-23T12:40:16;6.00;1.00
7248;DHT22;3665;51.034;13.642;2024-03-23T12:44:59;5.80;1.00
7248;DHT22;3665;51.034;13.642;2024-03-23T12:49:59;5.80;57.50
7248;DHT22;3665;51.034;13.642;2024-03-23T12:54:42;6.10;41.40
7248;DHT22;3665;51.034;13.642;2024-03-23T12:59:30;6.10;1.00
7248;DHT22;3665;51.034;13.642;2024-03-23T13:04:16;5.80;1.00
7248;DHT22;3665;51.034;13.642;2024-03-23T13:09:05;5.70;1.00
7248;DHT22;3665;51.034;13.642;2024-03-23T13:13:53;5.60;1.00
7248;DHT22;3665;51.034;13.642;2024-03-23T13:18:43;5.70;1.00
7248;DHT22;3665;51.034;13.642;2024-03-23T13:23:32;5.60;1.00
7248;DHT22;3665;51.034;13.642;2024-03-23T13:28:18;5.90;1.00
7248;DHT22;3665;51.034;13.642;2024-03-23T13:33:07;6.30;1.00
7248;DHT22;3665;51.034;13.642;2024-03-23T13:37:55;6.40;1.00
7248;DHT22;3665;51.034;13.642;2024-03-23T13:42:44;6.50;1.00
7248;DHT22;3665;51.034;13.642;2024-03-23T13:47:29;7.10;1.00
7248;DHT22;3665;51.034;13.642;2024-03-23T13:52:21;7.40;1.00
7248;DHT22;3665;51.034;13.642;2024-03-23T13:57:09;7.50;1.00
7248;DHT22;3665;51.034;13.642;2024-03-23T14:01:54;7.90;1.00
7248;DHT22;3665;51.034;13.642;2024-03-23T14:06:41;8.20;1.00
7248;DHT22;3665;51.034;13.642;2024-03-23T14:11:30;8.10;1.00
7248;DHT22;3665;51.034;13.642;2024-03-23T14:16:36;7.80;1.00
7248;DHT22;3665;51.034;13.642;2024-03-23T14:21:22;7.60;1.00
7248;DHT22;3665;51.034;13.642;2024-03-23T14:26:12;7.40;1.00
7248;DHT22;3665;51.034;13.642;2024-03-23T14:31:01;7.40;1.00
7248;DHT22;3665;51.034;13.642;2024-03-23T14:35:53;8.30;1.00
7248;DHT22;3665;51.034;13.642;2024-03-23T14:40:50;8.60;1.00
7248;DHT22;3665;51.034;13.642;2024-03-23T14:50:57;8.20;1.00
7248;DHT22;3665;51.034;13.642;2024-03-23T14:55:49;8.60;1.00
7248;DHT22;3665;51.034;13.642;2024-03-23T15:00:35;9.00;1.00
7248;DHT22;3665;51.034;13.642;2024-03-23T15:05:24;8.80;1.00
7248;DHT22;3665;51.034;13.642;2024-03-23T15:10:12;8.20;1.00
7248;DHT22;3665;51.034;13.642;2024-03-23T15:14:57;8.20;1.00
7248;DHT22;3665;51.034;13.642;2024-03-23T15:19:46;7.90;1.00
7248;DHT22;3665;51.034;13.642;2024-03-23T15:24:35;8.20;1.00
7248;DHT22;3665;51.034;13.642;2024-03-23T15:29:22;8.20;1.00
7248;DHT22;3665;51.034;13.642;2024-03-23T15:34:09;8.50;1.00
7248;DHT22;3665;51.034;13.642;2024-03-23T15:38:52;8.20;1.00
7248;DHT22;3665;51.034;13.642;2024-03-23T15:43:46;8.30;1.00
7248;DHT22;3665;51.034;13.642;2024-03-23T15:48:33;8.20;1.00
7248;DHT22;3665;51.034;13.642;2024-03-23T15:53:20;7.90;1.00
7248;DHT22;3665;51.034;13.642;2024-03-23T15:58:11;7.80;1.00
7248;DHT22;3665;51.034;13.642;2024-03-23T16:02:57;7.70;1.00
7248;DHT22;3665;51.034;13.642;2024-03-23T16:07:48;7.80;1.00
7248;DHT22;3665;51.034;13.642;2024-03-23T16:12:32;7.60;1.00
7248;DHT22;3665;51.034;13.642;2024-03-23T16:17:24;7.30;1.00
7248;DHT22;3665;51.034;13.642;2024-03-23T16:22:12;7.30;1.00
7248;DHT22;3665;51.034;13.642;2024-03-23T16:26:58;7.30;1.00
7248;DHT22;3665;51.034;13.642;2024-03-23T16:31:45;6.90;1.00
7248;DHT22;3665;51.034;13.642;2024-03-23T16:36:33;6.20;1.00
7248;DHT22;3665;51.034;13.642;2024-03-23T16:41:22;5.80;1.00
7248;DHT22;3665;51.034;13.642;2024-03-23T16:46:21;5.60;1.00
7248;DHT22;3665;51.034;13.642;2024-03-23T16:51:13;5.50;1.00
7248;DHT22;3665;51.034;13.642;2024-03-23T16:56:01;5.10;1.00
7248;DHT22;3665;51.034;13.642;2024-03-23T17:00:53;5.10;1.00
7248;DHT22;3665;51.034;13.642;2024-03-23T17:05:47;5.10;1.00
7248;DHT22;3665;51.034;13.642;2024-03-23T17:10:43;5.10;1.00
7248;DHT22;3665;51.034;13.642;2024-03-23T17:15:33;4.80;1.00
7248;DHT22;3665;51.034;13.642;2024-03-23T17:20:19;4.90;1.00
7248;DHT22;3665;51.034;13.642;2024-03-23T17:25:29;5.00;1.00
7248;DHT22;3665;51.034;13.642;2024-03-23T17:30:14;4.90;1.00
7248;DHT22;3665;51.034;13.642;2024-03-23T17:35:17;4.70;1.00
7248;DHT22;3665;51.034;13.642;2024-03-23T17:40:05;4.60;1.00
7248;DHT22;3665;51.034;13.642;2024-03-23T17:44:53;4.40;1.00
7248;DHT22;3665;51.034;13.642;2024-03-23T17:49:40;4.30;1.00
7248;DHT22;3665;51.034;13.642;2024-03-23T17:54:29;3.90;2.50
7248;DHT22;3665;51.034;13.642;2024-03-23T17:59:14;3.80;14.50
7248;DHT22;3665;51.034;13.642;2024-03-23T18:04:18;3.50;86.70
7248;DHT22;3665;51.034;13.642;2024-03-23T18:09:06;3.40;99.90
7248;DHT22;3665;51.034;13.642;2024-03-23T18:13:55;3.20;99.90
7248;DHT22;3665;51.034;13.642;2024-03-23T18:18:45;3.30;99.90
7248;DHT22;3665;51.034;13.642;2024-03-23T18:23:34;3.20;99.90
7248;DHT22;3665;51.034;13.642;2024-03-23T18:28:23;3.10;99.90
7248;DHT22;3665;51.034;13.642;2024-03-23T18:33:22;3.10;99.90
7248;DHT22;3665;51.034;13.642;2024-03-23T18:38:15;3.00;99.90
7248;DHT22;3665;51.034;13.642;2024-03-23T18:42:59;3.20;99.90
7248;DHT22;3665;51.034;13.642;2024-03-23T18:47:48;3.10;99.90
7248;DHT22;3665;51.034;13.642;2024-03-23T18:52:37;3.10;99.90
7248;DHT22;3665;51.034;13.642;2024-03-23T18:57:27;3.10;99.90
7248;DHT22;3665;51.034;13.642;2024-03-23T19:02:13;3.10;99.90
7248;DHT22;3665;51.034;13.642;2024-03-23T19:06:57;3.10;73.90
7248;DHT22;3665;51.034;13.642;2024-03-23T19:12:11;3.00;47.50
7248;DHT22;3665;51.034;13.642;2024-03-23T19:17:27;2.90;92.00
7248;DHT22;3665;51.034;13.642;2024-03-23T19:22:28;3.00;91.60
7248;DHT22;3665;51.034;13.642;2024-03-23T19:27:14;3.00;46.70
7248;DHT22;3665;51.034;13.642;2024-03-23T19:32:06;3.10;20.00
7248;DHT22;3665;51.034;13.642;2024-03-23T19:36:50;3.20;1.00
7248;DHT22;3665;51.034;13.642;2024-03-23T19:41:40;3.30;1.00
7248;DHT22;3665;51.034;13.642;2024-03-23T19:46:25;3.30;1.00
7248;DHT22;3665;51.034;13.642;2024-03-23T19:51:14;3.30;15.20
7248;DHT22;3665;51.034;13.642;2024-03-23T19:56:02;3.30;20.10
7248;DHT22;3665;51.034;13.642;2024-03-23T20:00:56;3.30;16.50
7248;DHT22;3665;51.034;13.642;2024-03-23T20:06:00;3.30;45.60
7248;DHT22;3665;51.034;13.642;2024-03-23T20:16:20;3.00;91.80
7248;DHT22;3665;51.034;13.642;2024-03-23T20:21:06;3.00;99.90
7248;DHT22;3665;51.034;13.642;2024-03-23T20:25:54;2.90;92.00
7248;DHT22;3665;51.034;13.642;2024-03-23T20:30:43;2.80;99.90
7248;DHT22;3665;51.034;13.642;2024-03-23T20:35:38;2.70;99.90
7248;DHT22;3665;51.034;13.642;2024-03-23T20:40:35;2.50;99.90
7248;DHT22;3665;51.034;13.642;2024-03-23T20:45:29;2.50;99.90
7248;DHT22;3665;51.034;13.642;2024-03-23T20:55:50;2.50;99.90
7248;DHT22;3665;51.034;13.642;2024-03-23T21:56:01;2.20;1.00
7248;DHT22;3665;51.034;13.642;2024-03-23T22:00:50;2.20;1.00
7248;DHT22;3665;51.034;13.642;2024-03-23T22:11:50;2.00;1.00
7248;DHT22;3665;51.034;13.642;2024-03-23T22:16:33;2.00;1.00
7248;DHT22;3665;51.034;13.642;2024-03-23T22:21:16;1.90;1.00
7248;DHT22;3665;51.034;13.642;2024-03-23T22:26:47;1.90;1.00
7248;DHT22;3665;51.034;13.642;2024-03-23T22:50:11;1.80;15.20
7248;DHT22;3665;51.034;13.642;2024-03-23T23:51:42;1.60;2.40
